Aviation Digital Data Service (ADDS)

Output produced by METARs form (2121 UTC 24 March 2019)
found at http://www.aviationweather.gov/metar/data/
 
TAF MZBZ 242030Z 2500/2524 08006KT 9999 FEW024 
     BECMG 2508/2510 30003KT 
     BECMG 2515/2517 08006KT